createdAt,value
2023-03-29T00:01:35.894Z,-0.66
2023-03-29T00:04:39.112Z,-0.22
2023-03-29T00:07:42.637Z,-0.71
2023-03-29T00:10:48.817Z,0.33
2023-03-29T00:13:51.462Z,0.20
2023-03-29T00:16:53.992Z,-0.12
2023-03-29T00:19:57.270Z,0.60
2023-03-29T00:23:00.588Z,0.42
2023-03-29T00:26:05.225Z,1.02
2023-03-29T00:29:10.100Z,0.98
2023-03-29T00:32:13.921Z,0.93
2023-03-29T00:35:20.111Z,1.05
2023-03-29T00:38:23.671Z,0.33
2023-03-29T00:41:26.784Z,0.79
2023-03-29T00:44:54.696Z,0.99
2023-03-29T00:48:05.834Z,0.57
2023-03-29T00:51:11.884Z,0.28
2023-03-29T00:54:18.852Z,0.88
2023-03-29T00:57:23.763Z,0.70
2023-03-29T01:00:35.547Z,0.49
2023-03-29T01:03:54.803Z,0.91
2023-03-29T01:07:06.427Z,0.77
2023-03-29T01:10:16.092Z,0.70
2023-03-29T01:13:27.772Z,1.01
2023-03-29T01:16:36.094Z,0.27
2023-03-29T01:19:44.442Z,0.69
2023-03-29T01:23:27.386Z,1.18
2023-03-29T01:26:54.482Z,1.05
2023-03-29T01:30:04.283Z,0.55
2023-03-29T01:33:14.686Z,0.65
2023-03-29T01:37:00.437Z,0.66
2023-03-29T01:40:05.222Z,0.50
2023-03-29T01:43:31.451Z,0.54
2023-03-29T01:46:45.602Z,0.51
2023-03-29T01:50:01.629Z,-0.04
2023-03-29T01:53:11.269Z,-0.36
2023-03-29T01:56:18.710Z,0.20
2023-03-29T01:59:29.026Z,0.04
2023-03-29T02:02:34.519Z,0.20
2023-03-29T02:05:42.472Z,0.12
2023-03-29T02:08:47.304Z,-0.01
2023-03-29T02:11:52.484Z,0.03
2023-03-29T02:14:56.647Z,-0.07
2023-03-29T02:17:59.838Z,-0.16
2023-03-29T02:21:02.928Z,0.22
2023-03-29T02:24:10.828Z,-0.02
2023-03-29T02:27:13.444Z,0.40
2023-03-29T02:30:19.383Z,0.20
2023-03-29T02:33:42.198Z,0.42
2023-03-29T02:36:50.495Z,0.29
2023-03-29T02:39:53.969Z,0.29
2023-03-29T02:42:59.253Z,0.36
2023-03-29T02:46:03.170Z,0.52
2023-03-29T02:49:06.387Z,0.55
2023-03-29T02:52:22.763Z,0.43
2023-03-29T02:55:31.906Z,0.54
2023-03-29T02:58:36.767Z,-0.06
2023-03-29T03:01:43.355Z,0.44
2023-03-29T03:04:45.690Z,0.49
2023-03-29T03:07:48.330Z,0.76
2023-03-29T03:10:51.423Z,0.09
2023-03-29T03:13:55.007Z,0.82
2023-03-29T03:17:00.703Z,0.41
2023-03-29T03:20:09.375Z,0.65
2023-03-29T03:23:12.146Z,0.53
2023-03-29T03:26:16.401Z,0.58
2023-03-29T03:29:19.731Z,0.65
2023-03-29T03:32:45.320Z,0.29
2023-03-29T03:36:12.105Z,-0.44
2023-03-29T03:39:18.284Z,-0.14
2023-03-29T03:42:22.142Z,-0.64
2023-03-29T03:45:24.939Z,-0.30
2023-03-29T03:48:33.927Z,-0.54
2023-03-29T03:51:45.543Z,-0.43
2023-03-29T03:54:50.809Z,-0.42
2023-03-29T03:58:13.841Z,-0.07
2023-03-29T04:01:17.216Z,-0.22
2023-03-29T04:04:29.628Z,0.01
2023-03-29T04:07:39.036Z,-0.61
2023-03-29T04:11:00.381Z,-0.14
2023-03-29T04:14:12.904Z,-0.51
2023-03-29T04:17:42.117Z,-0.16
2023-03-29T04:21:06.837Z,-0.35
2023-03-29T04:24:12.933Z,-0.48
2023-03-29T04:27:19.280Z,-0.54
2023-03-29T04:30:22.698Z,-0.34
2023-03-29T04:34:03.847Z,-0.43
2023-03-29T04:37:11.002Z,-0.51
2023-03-29T04:40:15.002Z,-0.64
2023-03-29T04:43:39.647Z,-0.28
2023-03-29T04:46:49.960Z,-0.48
2023-03-29T04:50:17.214Z,-0.42
2023-03-29T04:53:21.565Z,-0.28
2023-03-29T04:56:26.895Z,-0.41
2023-03-29T04:59:48.314Z,-0.13
2023-03-29T05:03:01.088Z,-0.29
2023-03-29T05:06:10.481Z,-0.09
2023-03-29T05:09:14.992Z,-0.76
2023-03-29T05:12:26.179Z,-0.08
2023-03-29T05:15:29.844Z,-0.21
2023-03-29T05:18:32.953Z,-0.31
2023-03-29T05:21:35.935Z,0.02
2023-03-29T05:24:42.703Z,-0.33
2023-03-29T05:27:53.174Z,0.25
2023-03-29T05:31:05.488Z,0.22
2023-03-29T05:34:11.055Z,0.21
2023-03-29T05:37:19.342Z,0.30
2023-03-29T05:40:27.293Z,0.00
2023-03-29T05:43:59.137Z,0.51
2023-03-29T05:47:03.705Z,0.29
2023-03-29T05:50:10.362Z,0.39
2023-03-29T05:53:13.188Z,0.70
2023-03-29T05:56:17.036Z,1.67
2023-03-29T05:59:20.246Z,4.36
2023-03-29T06:02:25.350Z,6.70
2023-03-29T06:05:28.670Z,8.98
2023-03-29T06:08:37.018Z,10.56
2023-03-29T06:11:59.572Z,11.09
2023-03-29T06:15:13.356Z,10.93
2023-03-29T06:18:20.714Z,11.34
2023-03-29T06:21:24.846Z,11.57
2023-03-29T06:24:27.153Z,12.31
2023-03-29T06:27:37.957Z,12.53
2023-03-29T06:30:42.076Z,12.10
2023-03-29T06:33:45.032Z,10.32
2023-03-29T06:37:19.446Z,8.17
2023-03-29T06:40:27.467Z,6.98
2023-03-29T06:43:30.180Z,5.75
2023-03-29T06:46:42.568Z,4.68
2023-03-29T06:49:44.528Z,4.04
2023-03-29T06:53:04.645Z,3.73
2023-03-29T06:56:09.463Z,3.02
2023-03-29T06:59:16.458Z,3.00
2023-03-29T07:02:29.363Z,3.04
2023-03-29T07:05:41.346Z,2.90
2023-03-29T07:08:52.376Z,2.86
2023-03-29T07:12:07.742Z,2.57
2023-03-29T07:15:11.461Z,2.74
2023-03-29T07:18:33.984Z,2.55
2023-03-29T07:21:37.955Z,2.87
2023-03-29T07:24:41.121Z,2.49
2023-03-29T07:27:44.058Z,3.09
2023-03-29T07:30:47.061Z,3.03
2023-03-29T07:33:54.060Z,3.36
2023-03-29T07:36:57.698Z,3.47
2023-03-29T07:40:04.111Z,3.98
2023-03-29T07:43:14.672Z,4.21
2023-03-29T07:46:17.743Z,4.63
2023-03-29T07:49:22.124Z,5.26
2023-03-29T07:52:25.183Z,5.15
2023-03-29T07:55:28.097Z,5.43
2023-03-29T07:58:38.313Z,5.53
2023-03-29T08:01:44.040Z,5.63
2023-03-29T08:05:00.774Z,5.11
2023-03-29T08:08:19.280Z,5.19
2023-03-29T08:11:33.233Z,5.12
2023-03-29T08:14:39.342Z,5.33
2023-03-29T08:17:50.402Z,5.48
2023-03-29T08:20:56.021Z,5.44
2023-03-29T08:23:58.697Z,5.85
2023-03-29T08:27:08.728Z,5.66
2023-03-29T08:30:12.282Z,5.44
2023-03-29T08:33:14.993Z,6.12
2023-03-29T08:36:18.928Z,5.95
2023-03-29T08:39:23.596Z,6.06
2023-03-29T08:42:50.233Z,5.87
2023-03-29T08:46:35.328Z,5.78
2023-03-29T08:49:54.887Z,5.75
2023-03-29T08:53:08.323Z,5.79
2023-03-29T08:56:34.722Z,5.68
2023-03-29T08:59:45.695Z,5.67
2023-03-29T09:02:54.415Z,5.52
2023-03-29T09:06:06.829Z,5.49
2023-03-29T09:09:20.151Z,5.57
2023-03-29T09:12:35.825Z,5.11
2023-03-29T09:16:14.401Z,5.41
2023-03-29T09:19:36.369Z,5.27
2023-03-29T09:22:52.435Z,5.48
2023-03-29T09:26:12.430Z,5.41
2023-03-29T09:30:03.303Z,5.55
2023-03-29T09:33:31.632Z,5.47
2023-03-29T09:36:52.990Z,5.36
2023-03-29T09:39:58.340Z,5.34
2023-03-29T09:43:25.458Z,5.30
2023-03-29T09:47:00.833Z,4.77
2023-03-29T09:50:30.328Z,5.10
2023-03-29T09:53:35.494Z,5.36
2023-03-29T09:56:56.702Z,5.30
2023-03-29T10:00:06.227Z,5.62
2023-03-29T10:03:29.954Z,5.47
2023-03-29T10:06:52.837Z,5.66
2023-03-29T10:09:59.075Z,5.65
2023-03-29T10:13:06.062Z,5.79
2023-03-29T10:16:17.247Z,5.81
2023-03-29T10:19:24.163Z,5.74
2023-03-29T10:22:33.487Z,5.96
2023-03-29T10:25:43.119Z,6.01
2023-03-29T10:28:46.159Z,5.75
2023-03-29T10:31:48.813Z,5.60
2023-03-29T10:34:52.618Z,5.65
2023-03-29T10:37:58.366Z,5.55
2023-03-29T10:41:10.881Z,6.04
2023-03-29T10:44:33.229Z,6.11
2023-03-29T10:47:36.428Z,5.79
2023-03-29T10:50:39.412Z,6.12
2023-03-29T10:53:42.517Z,6.07
2023-03-29T10:57:00.528Z,6.11
2023-03-29T11:00:16.121Z,6.46
2023-03-29T11:03:41.058Z,6.42
2023-03-29T11:07:11.392Z,6.42
2023-03-29T11:11:03.990Z,6.29
2023-03-29T11:14:47.774Z,6.50
2023-03-29T11:18:03.206Z,6.47
2023-03-29T11:21:34.682Z,6.47
2023-03-29T11:25:03.602Z,6.51
2023-03-29T11:28:27.446Z,6.87
2023-03-29T11:32:17.769Z,6.82
2023-03-29T11:35:56.932Z,6.67
2023-03-29T11:39:53.601Z,6.83
2023-03-29T11:47:07.852Z,6.93
2023-03-29T11:50:38.867Z,7.10
2023-03-29T11:53:56.760Z,7.04
2023-03-29T11:57:08.609Z,7.02
2023-03-29T12:00:32.013Z,7.09
2023-03-29T12:03:46.729Z,6.60
2023-03-29T12:07:19.490Z,7.25
2023-03-29T12:10:27.472Z,7.21
2023-03-29T12:13:35.921Z,7.22
2023-03-29T12:16:47.799Z,7.28
2023-03-29T12:20:15.279Z,7.29
2023-03-29T12:23:21.292Z,7.14
2023-03-29T12:26:27.840Z,7.52
2023-03-29T12:29:44.069Z,7.45
2023-03-29T12:32:56.863Z,7.52
2023-03-29T12:37:02.339Z,7.42
2023-03-29T12:40:23.008Z,7.42
2023-03-29T12:43:49.684Z,7.54
2023-03-29T12:47:03.051Z,7.41
2023-03-29T12:50:15.608Z,7.79
2023-03-29T12:53:51.799Z,7.91
2023-03-29T12:57:00.513Z,7.96
2023-03-29T13:00:27.898Z,7.59
2023-03-29T13:03:43.061Z,7.77
2023-03-29T13:06:48.274Z,8.13
2023-03-29T13:09:58.622Z,8.10
2023-03-29T13:13:22.423Z,8.24
2023-03-29T13:16:34.906Z,8.14
2023-03-29T13:19:59.225Z,8.37
2023-03-29T13:23:42.920Z,8.29
2023-03-29T13:27:05.054Z,8.17
2023-03-29T13:30:20.120Z,7.95
2023-03-29T13:33:50.185Z,8.46
2023-03-29T13:37:23.265Z,8.48
2023-03-29T13:40:43.922Z,8.46
2023-03-29T13:43:46.124Z,8.34
2023-03-29T13:46:48.918Z,8.34
2023-03-29T13:49:58.304Z,8.05
2023-03-29T13:53:13.087Z,8.17
2023-03-29T13:56:57.178Z,8.49
2023-03-29T14:00:18.259Z,8.54
2023-03-29T14:03:30.109Z,8.54
2023-03-29T14:06:36.717Z,8.34
2023-03-29T14:09:44.059Z,8.35
2023-03-29T14:12:46.750Z,8.23
2023-03-29T14:15:54.815Z,8.50
2023-03-29T14:19:04.164Z,8.25
2023-03-29T14:22:14.199Z,8.55
2023-03-29T14:25:25.407Z,8.58
2023-03-29T14:28:29.027Z,8.57
2023-03-29T14:31:38.659Z,8.48
2023-03-29T14:34:41.215Z,8.13
2023-03-29T14:37:49.330Z,8.40
2023-03-29T14:40:52.637Z,8.70
2023-03-29T14:43:55.601Z,8.53
2023-03-29T14:46:59.324Z,8.39
2023-03-29T14:50:03.285Z,8.28
2023-03-29T14:53:07.447Z,8.33
2023-03-29T14:56:13.433Z,8.44
2023-03-29T14:59:41.973Z,8.49
2023-03-29T15:02:55.080Z,8.54
2023-03-29T15:06:04.413Z,8.36
2023-03-29T15:09:07.191Z,8.19
2023-03-29T15:12:16.826Z,7.97
2023-03-29T15:15:20.504Z,8.30
2023-03-29T15:18:35.080Z,8.41
2023-03-29T15:21:39.463Z,8.20
2023-03-29T15:24:48.540Z,8.03
2023-03-29T15:28:00.985Z,8.10
2023-03-29T15:31:19.773Z,7.97
2023-03-29T15:34:30.968Z,7.88
2023-03-29T15:37:32.811Z,7.87
2023-03-29T15:40:36.008Z,8.10
2023-03-29T15:43:38.968Z,7.97
2023-03-29T15:46:42.463Z,7.91
2023-03-29T15:49:47.324Z,7.77
2023-03-29T15:52:50.150Z,7.75
2023-03-29T15:55:55.742Z,7.46
2023-03-29T15:58:58.688Z,7.83
2023-03-29T16:02:01.318Z,7.18
2023-03-29T16:05:03.778Z,7.26
2023-03-29T16:08:05.626Z,7.21
2023-03-29T16:11:07.650Z,7.46
2023-03-29T16:14:20.940Z,7.35
2023-03-29T16:17:23.788Z,7.33
2023-03-29T16:20:26.613Z,7.26
2023-03-29T16:23:29.568Z,6.57
2023-03-29T16:26:32.630Z,6.76
2023-03-29T16:29:35.571Z,6.70
2023-03-29T16:32:39.529Z,6.80
2023-03-29T16:35:42.097Z,6.44
2023-03-29T16:38:44.892Z,6.61
2023-03-29T16:41:48.982Z,6.62
2023-03-29T16:44:52.570Z,6.36
2023-03-29T16:47:56.191Z,6.38
2023-03-29T16:50:59.032Z,6.09
2023-03-29T16:54:01.825Z,5.75
2023-03-29T16:57:04.738Z,5.85
2023-03-29T17:00:12.039Z,5.73
2023-03-29T17:03:14.399Z,5.38
2023-03-29T17:06:16.356Z,5.19
2023-03-29T17:09:19.205Z,5.26
2023-03-29T17:12:23.352Z,5.19
2023-03-29T17:15:25.089Z,5.04
2023-03-29T17:18:28.141Z,5.04
2023-03-29T17:21:30.859Z,4.99
2023-03-29T17:24:33.666Z,4.75
2023-03-29T17:27:41.034Z,4.51
2023-03-29T17:30:46.835Z,4.70
2023-03-29T17:33:52.470Z,4.40
2023-03-29T17:36:57.861Z,4.03
2023-03-29T17:39:59.808Z,4.29
2023-03-29T17:43:01.622Z,4.05
2023-03-29T17:46:03.905Z,4.33
2023-03-29T17:49:07.347Z,3.91
2023-03-29T17:52:09.643Z,3.87
2023-03-29T17:55:14.221Z,4.10
2023-03-29T17:58:17.282Z,4.20
2023-03-29T18:01:21.537Z,4.11
2023-03-29T18:04:24.404Z,3.78
2023-03-29T18:07:30.436Z,3.80
2023-03-29T18:10:33.243Z,4.15
2023-03-29T18:13:36.278Z,4.09
2023-03-29T18:16:39.532Z,3.74
2023-03-29T18:19:44.965Z,4.08
2023-03-29T18:22:46.852Z,3.76
2023-03-29T18:25:50.018Z,3.91
2023-03-29T18:28:52.527Z,3.81
2023-03-29T18:31:57.193Z,3.73
2023-03-29T18:34:59.310Z,3.77
2023-03-29T18:38:03.854Z,3.69
2023-03-29T18:41:06.939Z,3.91
2023-03-29T18:44:11.226Z,3.66
2023-03-29T18:47:14.617Z,3.74
2023-03-29T18:50:17.537Z,3.60
2023-03-29T18:53:20.249Z,3.23
2023-03-29T18:56:22.101Z,3.33
2023-03-29T18:59:25.004Z,3.67
2023-03-29T19:02:29.706Z,3.61
2023-03-29T19:05:41.284Z,3.38
2023-03-29T19:08:45.934Z,3.34
2023-03-29T19:11:51.876Z,3.40
2023-03-29T19:14:54.878Z,3.19
2023-03-29T19:17:57.835Z,2.94
2023-03-29T19:21:00.312Z,3.19
2023-03-29T19:24:05.560Z,3.01
2023-03-29T19:27:09.247Z,3.02
2023-03-29T19:30:14.123Z,3.04
2023-03-29T19:33:17.121Z,2.96
2023-03-29T19:36:19.720Z,3.09
2023-03-29T19:39:25.302Z,2.72
2023-03-29T19:42:28.461Z,2.87
2023-03-29T19:45:32.500Z,2.62
2023-03-29T19:48:38.087Z,2.75
2023-03-29T19:51:41.991Z,2.88
2023-03-29T19:54:44.911Z,2.48
2023-03-29T19:57:47.824Z,2.57
2023-03-29T20:00:55.896Z,2.75
2023-03-29T20:03:58.785Z,2.81
2023-03-29T20:07:01.051Z,2.63
2023-03-29T20:10:04.383Z,2.49
2023-03-29T20:13:06.801Z,2.20
2023-03-29T20:16:12.873Z,2.58
2023-03-29T20:19:17.941Z,2.35
2023-03-29T20:22:20.258Z,2.37
2023-03-29T20:25:23.106Z,2.45
2023-03-29T20:28:26.320Z,2.27
2023-03-29T20:31:30.119Z,2.39
2023-03-29T20:34:41.595Z,2.33
2023-03-29T20:37:44.048Z,1.85
2023-03-29T20:40:53.357Z,2.36
2023-03-29T20:44:07.049Z,2.15
2023-03-29T20:47:25.680Z,2.05
2023-03-29T20:50:28.315Z,2.37
2023-03-29T20:53:34.238Z,2.28
2023-03-29T20:56:39.824Z,2.11
2023-03-29T20:59:44.336Z,1.58
2023-03-29T21:03:11.673Z,1.91
2023-03-29T22:08:22.103Z,1.23
